Pagina principale
METAR-TAF:

METAR-TAF

Aeroporti :

Aeroporto di Hannover-Langenhagen

Hannover, Germania

latitudine: 52-28N, longitudine: 009-41E, altezza: 56 m

Osservazione

Il bollettino è stato emesso 37 minuti fa, alle 16:20 UTC
Vento 9 kt da nord-est, variando fra nord/nord-est e est
Temperature 22°C
Umidità 41%
Pressione 1022 hPa
Visibilità 10 km o più
nessuna nube inferiore a 1500 m e nessun cumulonembo

METAR: EDDV 311620Z 05009KT 020V080 CAVOK 22/08 Q1022 NOSIG

Ora: 18:57 (16:57 UTC)

Previsione

Il bollettino è stato emesso 5 ore e 57 minuti fa, alle 11:00 UTC
Previsione valida dal 31 alle 12 UTC al 01 alle 12 UTC
Vento 10 kt da nord-est
Visibilità 10 km o più
nessuna nube inferiore a 1500 m e nessun cumulonembo
Evoluzione graduale
dal 31 alle 18 UTC al 31 alle 21 UTC
Vento 5 kt da nord-est
Evoluzione graduale
dal 01 alle 06 UTC al 01 alle 08 UTC
Vento 10 kt da est/nord-est

TAF: EDDV 311100Z 3112/0112 05010KT CAVOK BECMG 3118/3121 05005KT BECMG 0106/0108 07010KT

Osservazioni e previsioni meteorologiche di più di 4000 aeroporti (messaggi METAR e TAF).

Le stazioni disponibili sono rappresentate dai dischi gialli e rossi sulla carta.

Puntare il mouse per vedere il nome della stazione.

Clicca sopra per visualizzare le osservazioni e previsioni meteorologiche.

Per cambiare la mappa : fare clic sui pulsanti verdi con una croce nera per ingrandire, il pulsante verde con un trattino per diminuire, o sulla freccia verde per le mappe adiacenti.


METAR-TAF: